createdAt,value
2023-05-14T00:00:44.549Z,66.6283
2023-05-14T00:01:46.942Z,65.6680
2023-05-14T00:02:49.287Z,66.6183
2023-05-14T00:03:51.695Z,67.1883
2023-05-14T00:04:53.897Z,68.9055
2023-05-14T00:05:56.238Z,68.0234
2023-05-14T00:06:58.579Z,66.6232
2023-05-14T00:08:00.921Z,67.2042
2023-05-14T00:09:03.258Z,67.1692
2023-05-14T00:10:05.605Z,66.7804
2023-05-14T00:11:08.047Z,67.1022
2023-05-14T00:12:10.304Z,67.7428
2023-05-14T00:13:12.591Z,66.9751
2023-05-14T00:14:14.946Z,66.0378
2023-05-14T00:15:17.270Z,66.4397
2023-05-14T00:16:19.662Z,67.3231
2023-05-14T00:17:21.975Z,66.9734
2023-05-14T00:18:24.312Z,66.5815
2023-05-14T00:19:26.717Z,67.3937
2023-05-14T00:20:28.956Z,69.3545
2023-05-14T00:21:31.355Z,69.0220
2023-05-14T00:22:33.647Z,67.3209
2023-05-14T00:23:36.078Z,67.2486
2023-05-14T00:24:38.975Z,68.2041
2023-05-14T00:25:40.824Z,68.4719
2023-05-14T00:26:43.973Z,68.4296
2023-05-14T00:27:45.422Z,67.7736
2023-05-14T00:28:47.729Z,67.3908
2023-05-14T00:29:50.777Z,67.3808
2023-05-14T00:30:52.644Z,67.7626
2023-05-14T00:31:54.809Z,67.2728
2023-05-14T00:32:58.112Z,67.2431
2023-05-14T00:33:59.467Z,66.8673
2023-05-14T00:35:01.919Z,66.7116
2023-05-14T00:36:04.423Z,66.9328
2023-05-14T00:37:06.926Z,67.6280
2023-05-14T00:38:09.798Z,68.2513
2023-05-14T00:39:11.061Z,68.6648
2023-05-14T00:40:13.650Z,67.8858
2023-05-14T00:41:16.187Z,67.4067
2023-05-14T00:42:18.187Z,66.6125
2023-05-14T00:43:20.733Z,66.6129
2023-05-14T00:44:22.873Z,67.9794
2023-05-14T00:45:25.354Z,66.9001
2023-05-14T00:46:27.608Z,66.4389
2023-05-14T00:47:30.674Z,66.8035
2023-05-14T00:48:32.433Z,68.3653
2023-05-14T00:49:34.776Z,68.3016
2023-05-14T00:50:36.998Z,68.7735
2023-05-14T00:51:39.185Z,69.3338
2023-05-14T00:52:41.527Z,68.1812
2023-05-14T00:53:43.995Z,67.8001
2023-05-14T00:54:46.261Z,69.5783
2023-05-14T00:55:49.062Z,68.6268
2023-05-14T00:56:51.096Z,68.8768
2023-05-14T00:57:53.311Z,69.3386
2023-05-14T00:58:55.492Z,69.9830
2023-05-14T00:59:58.031Z,69.8218
2023-05-14T01:01:00.779Z,70.3431
2023-05-14T01:02:02.710Z,70.3087
2023-05-14T01:03:05.192Z,69.4885
2023-05-14T01:04:07.936Z,68.4531
2023-05-14T01:05:09.707Z,68.0277
2023-05-14T01:06:11.975Z,69.4186
2023-05-14T01:07:14.346Z,68.9989
2023-05-14T01:08:16.545Z,69.0570
2023-05-14T01:09:18.957Z,68.5726
2023-05-14T01:10:21.624Z,67.9477
2023-05-14T01:11:23.745Z,67.2771
2023-05-14T01:12:26.621Z,66.7049
2023-05-14T01:13:28.285Z,66.4867
2023-05-14T01:14:30.659Z,67.1747
2023-05-14T01:15:33.070Z,67.2184
2023-05-14T01:16:35.331Z,67.5396
2023-05-14T01:17:37.671Z,67.8902
2023-05-14T01:18:39.929Z,68.6967
2023-05-14T01:19:42.343Z,69.0368
2023-05-14T01:20:44.761Z,69.3626
2023-05-14T01:21:47.043Z,69.5532
2023-05-14T01:22:49.408Z,69.8795
2023-05-14T01:23:51.598Z,70.3528
2023-05-14T01:24:54.015Z,69.7604
2023-05-14T01:25:56.415Z,69.4922
2023-05-14T01:26:58.708Z,68.8675
2023-05-14T01:28:00.930Z,69.7041
2023-05-14T01:29:03.625Z,69.0558
2023-05-14T01:30:05.681Z,70.6724
2023-05-14T01:31:08.102Z,69.7692
2023-05-14T01:32:10.693Z,70.0673
2023-05-14T01:33:12.840Z,69.4180
2023-05-14T01:34:15.201Z,68.5289
2023-05-14T01:35:17.360Z,68.6459
2023-05-14T01:36:20.106Z,69.7933
2023-05-14T01:37:22.190Z,68.6434
2023-05-14T01:38:24.456Z,68.5235
2023-05-14T01:39:26.682Z,68.0545
2023-05-14T01:40:28.950Z,67.2646
2023-05-14T01:41:31.477Z,66.8392
2023-05-14T01:42:33.694Z,66.5400
2023-05-14T01:43:36.228Z,68.3194
2023-05-14T01:44:38.315Z,68.5519
2023-05-14T01:45:40.835Z,67.7394
2023-05-14T01:46:43.273Z,67.5087
2023-05-14T01:47:45.613Z,66.9562
2023-05-14T01:48:47.749Z,68.0658
2023-05-14T01:49:50.235Z,68.5521
2023-05-14T01:50:52.439Z,67.4182
2023-05-14T01:51:54.963Z,66.7409
2023-05-14T01:52:57.358Z,67.0083
2023-05-14T01:53:59.664Z,66.8938
2023-05-14T01:55:02.079Z,66.8312
2023-05-14T01:56:04.101Z,66.7912
2023-05-14T01:57:06.391Z,66.1843
2023-05-14T01:58:08.801Z,67.5036
2023-05-14T01:59:11.205Z,67.2394
2023-05-14T02:00:13.532Z,66.9159
2023-05-14T02:01:16.315Z,66.8009
2023-05-14T02:02:18.980Z,66.7746
2023-05-14T02:03:20.654Z,66.8039
2023-05-14T02:04:22.846Z,66.9755
2023-05-14T02:05:25.327Z,67.0764
2023-05-14T02:06:27.983Z,66.9927
2023-05-14T02:07:29.940Z,67.2626
2023-05-14T02:08:32.655Z,67.6206
2023-05-14T02:09:34.581Z,67.4463
2023-05-14T02:10:36.829Z,67.2290
2023-05-14T02:11:39.247Z,67.3361
2023-05-14T02:12:41.712Z,67.1713
2023-05-14T02:13:43.926Z,67.0546
2023-05-14T02:14:46.199Z,66.7175
2023-05-14T02:15:48.708Z,66.9361
2023-05-14T02:16:50.945Z,67.0367
2023-05-14T02:17:53.264Z,67.2160
2023-05-14T02:18:55.937Z,68.3697
2023-05-14T02:19:58.053Z,68.6721
2023-05-14T02:21:00.287Z,68.1170
2023-05-14T02:22:02.690Z,67.9389
2023-05-14T02:23:05.714Z,68.2688
2023-05-14T02:24:07.240Z,68.7105
2023-05-14T02:25:09.947Z,69.2196
2023-05-14T02:26:12.870Z,68.8685
2023-05-14T02:27:14.857Z,68.4668
2023-05-14T02:28:17.013Z,68.4316
2023-05-14T02:29:19.136Z,69.5835
2023-05-14T02:30:22.144Z,69.0374
2023-05-14T02:31:24.074Z,68.1835
2023-05-14T02:32:26.346Z,68.3463
2023-05-14T02:33:28.678Z,67.9317
2023-05-14T02:34:30.717Z,67.4480
2023-05-14T02:35:33.249Z,67.0606
2023-05-14T02:36:35.775Z,67.5266
2023-05-14T02:37:38.136Z,69.0815
2023-05-14T02:38:40.145Z,68.2023
2023-05-14T02:39:42.328Z,68.4464
2023-05-14T02:40:44.671Z,68.2902
2023-05-14T02:41:47.007Z,67.6081
2023-05-14T02:42:49.358Z,67.2353
2023-05-14T02:43:51.709Z,67.5990
2023-05-14T02:44:54.290Z,69.4988
2023-05-14T02:45:56.355Z,69.2487
2023-05-14T02:46:58.792Z,68.7794
2023-05-14T02:48:01.088Z,68.1782
2023-05-14T02:49:03.392Z,67.6530
2023-05-14T02:50:06.027Z,67.9691
2023-05-14T02:51:08.081Z,68.0791
2023-05-14T02:52:10.437Z,68.5765
2023-05-14T02:53:12.708Z,68.7242
2023-05-14T02:54:15.050Z,68.8249
2023-05-14T02:55:17.431Z,68.2233
2023-05-14T02:56:19.719Z,67.9660
2023-05-14T02:57:22.097Z,67.9234
2023-05-14T02:58:27.435Z,68.1265
2023-05-14T02:59:26.980Z,69.0614
2023-05-14T03:00:29.072Z,69.3020
2023-05-14T03:01:32.041Z,69.8821
2023-05-14T03:02:33.970Z,69.7428
2023-05-14T03:03:36.108Z,68.9092
2023-05-14T03:04:38.718Z,68.6047
2023-05-14T03:05:41.042Z,69.7173
2023-05-14T03:06:43.122Z,70.6238
2023-05-14T03:07:45.466Z,69.6189
2023-05-14T03:08:47.793Z,68.7510
2023-05-14T03:09:50.095Z,68.6280
2023-05-14T03:10:52.468Z,69.2594
2023-05-14T03:11:54.780Z,68.6162
2023-05-14T03:12:57.166Z,68.1202
2023-05-14T03:13:59.503Z,69.0485
2023-05-14T03:15:02.104Z,69.6920
2023-05-14T03:16:04.150Z,69.0506
2023-05-14T03:17:06.574Z,68.4444
2023-05-14T03:18:09.134Z,67.8096
2023-05-14T03:19:11.363Z,67.7745
2023-05-14T03:20:13.584Z,67.7865
2023-05-14T03:21:15.997Z,68.5234
2023-05-14T03:22:18.371Z,68.2017
2023-05-14T03:23:20.515Z,68.0380
2023-05-14T03:24:22.974Z,67.9058
2023-05-14T03:25:25.783Z,68.6619
2023-05-14T03:26:27.935Z,68.5193
2023-05-14T03:27:30.636Z,68.2256
2023-05-14T03:28:32.201Z,67.9959
2023-05-14T03:29:34.513Z,67.7347
2023-05-14T03:30:36.996Z,67.7212
2023-05-14T03:31:39.214Z,67.5503
2023-05-14T03:32:41.618Z,67.3201
2023-05-14T03:33:44.044Z,67.5803
2023-05-14T03:34:46.312Z,67.7127
2023-05-14T03:35:48.555Z,67.6680
2023-05-14T03:36:52.007Z,67.9772
2023-05-14T03:37:53.228Z,69.3595
2023-05-14T03:38:55.570Z,68.9572
2023-05-14T03:39:58.037Z,68.3473
2023-05-14T03:41:00.453Z,67.7841
2023-05-14T03:42:02.881Z,67.6487
2023-05-14T03:43:04.904Z,68.0618
2023-05-14T03:44:07.275Z,68.9061
2023-05-14T03:45:09.615Z,68.6414
2023-05-14T03:46:12.258Z,68.6686
2023-05-14T03:47:14.363Z,68.5865
2023-05-14T03:48:16.796Z,68.4017
2023-05-14T03:49:19.016Z,68.9632
2023-05-14T03:50:21.359Z,68.9181
2023-05-14T03:51:23.603Z,68.4639
2023-05-14T03:52:25.942Z,67.8590
2023-05-14T03:53:28.383Z,67.7505
2023-05-14T03:54:30.668Z,67.5501
2023-05-14T03:55:32.925Z,68.3689
2023-05-14T03:56:35.294Z,69.6582
2023-05-14T03:57:37.761Z,70.3393
2023-05-14T03:58:40.069Z,69.0842
2023-05-14T03:59:42.647Z,68.3233
2023-05-14T04:00:44.937Z,68.2948
2023-05-14T04:01:47.290Z,68.3140
2023-05-14T04:02:49.330Z,68.2939
2023-05-14T04:03:51.845Z,68.1890
2023-05-14T04:04:54.438Z,68.0066
2023-05-14T04:05:57.083Z,68.3435
2023-05-14T04:06:58.696Z,67.9846
2023-05-14T04:08:01.013Z,67.6514
2023-05-14T04:09:03.428Z,67.9225
2023-05-14T04:10:06.070Z,67.8287
2023-05-14T04:11:08.061Z,67.9190
2023-05-14T04:12:10.552Z,67.9311
2023-05-14T04:13:13.138Z,68.1362
2023-05-14T04:14:15.212Z,68.3786
2023-05-14T04:15:17.723Z,68.8428
2023-05-14T04:16:19.730Z,69.6480
2023-05-14T04:17:22.090Z,69.7680
2023-05-14T04:18:24.548Z,69.9510
2023-05-14T04:19:26.697Z,69.2263
2023-05-14T04:20:29.190Z,68.6354
2023-05-14T04:21:31.472Z,68.2148
2023-05-14T04:22:33.945Z,68.0733
2023-05-14T04:23:36.134Z,68.0932
2023-05-14T04:24:38.415Z,67.8638
2023-05-14T04:25:40.724Z,68.0266
2023-05-14T04:26:43.180Z,68.1587
2023-05-14T04:27:45.407Z,68.0421
2023-05-14T04:28:47.950Z,68.1359
2023-05-14T04:29:50.329Z,68.0753
2023-05-14T04:30:52.443Z,68.2414
2023-05-14T04:31:54.781Z,68.1486
2023-05-14T04:32:57.131Z,68.0506
2023-05-14T04:33:59.576Z,68.2733
2023-05-14T04:35:01.898Z,68.5902
2023-05-14T04:36:04.088Z,68.2584
2023-05-14T04:37:06.401Z,68.4382
2023-05-14T04:38:08.770Z,68.6216
2023-05-14T04:39:11.180Z,68.4547
2023-05-14T04:40:13.407Z,68.7609
2023-05-14T04:41:15.744Z,69.2816
2023-05-14T04:42:18.080Z,68.8818
2023-05-14T04:43:20.466Z,69.1724
2023-05-14T04:44:22.743Z,68.9229
2023-05-14T04:45:25.086Z,68.6415
2023-05-14T04:46:27.553Z,68.3009
2023-05-14T04:47:29.828Z,68.1024
2023-05-14T04:48:32.084Z,68.0178
2023-05-14T04:49:34.563Z,67.9486
2023-05-14T04:50:36.832Z,67.6455
2023-05-14T04:51:39.097Z,67.7798
2023-05-14T04:52:41.482Z,67.9927
2023-05-14T04:53:45.025Z,67.9906
2023-05-14T04:54:47.410Z,67.9689
2023-05-14T04:55:48.941Z,68.0645
2023-05-14T04:56:50.919Z,68.0753
2023-05-14T04:57:53.169Z,67.9760
2023-05-14T04:58:55.982Z,68.0879
2023-05-14T04:59:57.795Z,68.1074
2023-05-14T05:01:00.504Z,68.3360
2023-05-14T05:02:02.486Z,68.3861
2023-05-14T05:03:05.257Z,68.3580
2023-05-14T05:04:07.205Z,68.7490
2023-05-14T05:05:09.862Z,68.9579
2023-05-14T05:06:12.329Z,69.8480
2023-05-14T05:07:14.143Z,70.1572
2023-05-14T05:08:17.115Z,69.8039
2023-05-14T05:09:19.400Z,68.9472
2023-05-14T05:10:21.272Z,68.3186
2023-05-14T05:11:23.603Z,68.5546
2023-05-14T05:12:25.911Z,68.0766
2023-05-14T05:13:28.270Z,67.3464
2023-05-14T05:14:30.545Z,67.0307
2023-05-14T05:15:33.014Z,67.2019
2023-05-14T05:16:35.559Z,67.3976
2023-05-14T05:17:37.797Z,66.9600
2023-05-14T05:18:40.186Z,66.5182
2023-05-14T05:19:44.118Z,66.7095
2023-05-14T05:20:44.589Z,66.9647
2023-05-14T05:21:47.355Z,66.8966
2023-05-14T05:22:49.395Z,66.7817
2023-05-14T05:23:51.652Z,66.3727
2023-05-14T05:24:54.322Z,66.0554
2023-05-14T05:25:56.349Z,66.2605
2023-05-14T05:26:58.593Z,66.1977
2023-05-14T05:28:00.968Z,66.5004
2023-05-14T05:29:03.298Z,66.3549
2023-05-14T05:30:05.641Z,66.2473
2023-05-14T05:31:08.330Z,66.6278
2023-05-14T05:32:10.435Z,67.0040
2023-05-14T05:33:12.668Z,67.1581
2023-05-14T05:34:14.918Z,67.4917
2023-05-14T05:35:17.343Z,68.0768
2023-05-14T05:36:19.715Z,67.7713
2023-05-14T05:37:22.097Z,67.2817
2023-05-14T05:38:24.298Z,67.4260
2023-05-14T05:39:26.643Z,67.4124
2023-05-14T05:40:28.974Z,67.3421
2023-05-14T05:41:31.321Z,67.5852
2023-05-14T05:42:33.751Z,69.0287
2023-05-14T05:43:36.049Z,68.2771
2023-05-14T05:44:38.462Z,67.8008
2023-05-14T05:45:40.740Z,67.6730
2023-05-14T05:46:43.191Z,67.1687
2023-05-14T05:47:45.488Z,67.3487
2023-05-14T05:48:47.809Z,67.3729
2023-05-14T05:49:50.006Z,67.3958
2023-05-14T05:50:52.377Z,67.0335
2023-05-14T05:51:54.793Z,66.8761
2023-05-14T05:52:57.023Z,67.1492
2023-05-14T05:53:59.339Z,67.0982
2023-05-14T05:55:01.697Z,66.8826
2023-05-14T05:56:04.091Z,67.7406
2023-05-14T05:57:06.456Z,69.3455
2023-05-14T05:58:08.713Z,68.5176
2023-05-14T05:59:11.157Z,68.4593
2023-05-14T06:00:13.484Z,68.4719
2023-05-14T06:01:15.888Z,69.4775
2023-05-14T06:02:18.121Z,69.4867
2023-05-14T06:03:20.410Z,69.5722
2023-05-14T06:04:22.750Z,68.8350
2023-05-14T06:05:25.091Z,68.0758
2023-05-14T06:06:27.372Z,67.5923
2023-05-14T06:07:29.801Z,67.2866
2023-05-14T06:08:32.428Z,67.2979
2023-05-14T06:09:34.401Z,67.0557
2023-05-14T06:10:36.850Z,66.7007
2023-05-14T06:11:39.082Z,66.7234
2023-05-14T06:12:41.444Z,66.8792
2023-05-14T06:13:43.818Z,66.7280
2023-05-14T06:14:46.084Z,66.8790
2023-05-14T06:15:48.407Z,66.5949
2023-05-14T06:16:50.924Z,66.1180
2023-05-14T06:17:53.418Z,66.0458
2023-05-14T06:18:55.505Z,66.0305
2023-05-14T06:19:57.984Z,66.6365
2023-05-14T06:21:00.142Z,66.4675
2023-05-14T06:22:02.791Z,67.0605
2023-05-14T06:23:04.810Z,67.3810
2023-05-14T06:24:07.216Z,68.1371
2023-05-14T06:25:09.610Z,69.3335
2023-05-14T06:26:12.129Z,68.4896
2023-05-14T06:27:14.170Z,68.5271
2023-05-14T06:28:16.442Z,68.1945
2023-05-14T06:29:19.306Z,67.3253
2023-05-14T06:30:21.392Z,68.0178
2023-05-14T06:31:23.449Z,68.3458
2023-05-14T06:32:25.851Z,69.3134
2023-05-14T06:33:28.129Z,69.7633
2023-05-14T06:34:30.551Z,69.4789
2023-05-14T06:35:32.811Z,68.8773
2023-05-14T06:36:35.096Z,69.5215
2023-05-14T06:37:38.247Z,69.1789
2023-05-14T06:38:39.896Z,68.0684
2023-05-14T06:39:42.113Z,67.5030
2023-05-14T06:40:44.512Z,67.4068
2023-05-14T06:41:47.131Z,67.0448
2023-05-14T06:42:49.648Z,66.5522
2023-05-14T06:43:51.580Z,66.0015
2023-05-14T06:44:53.841Z,66.1439
2023-05-14T06:45:56.134Z,66.1057
2023-05-14T06:46:58.572Z,66.9668
2023-05-14T06:48:01.506Z,68.3805
2023-05-14T06:49:03.126Z,68.4783
2023-05-14T06:50:05.435Z,67.9362
2023-05-14T06:51:07.787Z,67.3080
2023-05-14T06:52:10.128Z,67.1814
2023-05-14T06:53:12.431Z,68.0801
2023-05-14T06:54:14.787Z,67.5041
2023-05-14T06:55:17.096Z,66.9650
2023-05-14T06:56:19.447Z,66.9999
2023-05-14T06:57:21.780Z,67.8790
2023-05-14T06:58:24.116Z,67.3087
2023-05-14T06:59:26.552Z,68.1634
2023-05-14T07:00:28.861Z,67.7631
2023-05-14T07:01:31.189Z,67.5585
2023-05-14T07:02:33.496Z,67.0123
2023-05-14T07:03:35.832Z,66.7826
2023-05-14T07:04:39.274Z,66.9887
2023-05-14T07:05:40.609Z,67.6203
2023-05-14T07:06:42.820Z,66.9752
2023-05-14T07:07:45.179Z,67.0015
2023-05-14T07:08:47.482Z,67.3181
2023-05-14T07:09:49.971Z,67.5863
2023-05-14T07:10:52.308Z,68.6886
2023-05-14T07:11:54.624Z,68.8273
2023-05-14T07:12:57.079Z,68.4055
2023-05-14T07:13:59.282Z,68.6025
2023-05-14T07:15:01.585Z,69.0998
2023-05-14T07:16:03.852Z,70.2960
2023-05-14T07:17:06.312Z,70.5610
2023-05-14T07:18:08.548Z,70.7760
2023-05-14T07:19:10.979Z,70.2057
2023-05-14T07:20:13.179Z,69.8939
2023-05-14T07:21:15.555Z,69.7945
2023-05-14T07:22:17.865Z,69.4720
2023-05-14T07:23:20.240Z,69.5389
2023-05-14T07:24:22.512Z,69.3842
2023-05-14T07:25:24.842Z,68.8795
2023-05-14T07:26:27.251Z,70.1251
2023-05-14T07:27:29.569Z,69.9141
2023-05-14T07:28:31.844Z,69.5833
2023-05-14T07:29:34.182Z,69.2485
2023-05-14T07:30:36.516Z,69.3349
2023-05-14T07:31:38.918Z,69.9098
2023-05-14T07:32:41.474Z,70.0962
2023-05-14T07:33:43.526Z,70.2572
2023-05-14T07:34:45.879Z,70.2326
2023-05-14T07:35:48.211Z,70.3692
2023-05-14T07:36:50.563Z,70.6206
2023-05-14T07:37:52.932Z,71.6272
2023-05-14T07:38:55.250Z,71.9631
2023-05-14T07:39:57.591Z,71.4048
2023-05-14T07:40:59.874Z,70.8987
2023-05-14T07:42:02.217Z,70.7184
2023-05-14T07:43:04.584Z,69.6638
2023-05-14T07:44:06.957Z,68.7682
2023-05-14T07:45:09.217Z,68.7256
2023-05-14T07:46:11.591Z,68.6999
2023-05-14T07:47:13.933Z,69.6710
2023-05-14T07:48:16.259Z,69.3497
2023-05-14T07:49:18.555Z,68.8066
2023-05-14T07:50:20.933Z,69.6230
2023-05-14T07:51:23.271Z,70.7986
2023-05-14T07:52:25.562Z,70.4867
2023-05-14T07:53:27.888Z,70.0189
2023-05-14T07:54:30.380Z,70.3609
2023-05-14T07:55:32.597Z,69.7199
2023-05-14T07:56:34.895Z,69.8441
2023-05-14T07:57:37.236Z,69.0023
2023-05-14T07:58:39.557Z,69.2871
2023-05-14T07:59:41.932Z,69.7672
2023-05-14T08:00:44.249Z,69.0102
2023-05-14T08:01:46.611Z,68.7651
2023-05-14T08:02:49.219Z,68.8350
2023-05-14T08:03:51.348Z,68.4081
2023-05-14T08:04:53.647Z,67.6654
2023-05-14T08:05:55.970Z,68.1479
2023-05-14T08:06:58.321Z,68.4341
2023-05-14T08:08:00.613Z,67.6811
2023-05-14T08:09:10.523Z,67.2290
2023-05-14T08:10:05.442Z,67.2019
2023-05-14T08:11:07.711Z,66.9547
2023-05-14T08:12:10.028Z,66.9073
2023-05-14T08:13:12.319Z,67.4186
2023-05-14T08:14:14.746Z,67.6930
2023-05-14T08:15:17.032Z,68.1212
2023-05-14T08:16:19.431Z,68.3222
2023-05-14T08:17:21.773Z,67.9842
2023-05-14T08:18:24.013Z,67.2397
2023-05-14T08:19:26.350Z,67.0691
2023-05-14T08:20:28.846Z,67.5414
2023-05-14T08:21:31.062Z,66.9879
2023-05-14T08:22:33.371Z,67.9680
2023-05-14T08:23:35.968Z,67.3962
2023-05-14T08:26:47.797Z,66.1775
2023-05-14T08:26:47.797Z,68.1824
2023-05-14T08:27:49.854Z,67.7231
2023-05-14T08:28:52.494Z,67.1963
2023-05-14T08:29:54.715Z,67.0338
2023-05-14T08:30:56.981Z,65.4922
2023-05-14T08:32:01.925Z,64.5899
2023-05-14T08:33:01.678Z,64.0859
2023-05-14T08:34:05.088Z,65.6816
2023-05-14T08:35:06.935Z,66.0720
2023-05-14T08:36:08.528Z,65.2629
2023-05-14T08:37:10.899Z,65.0103
2023-05-14T08:38:13.215Z,64.0495
2023-05-14T08:39:15.537Z,63.7310
2023-05-14T08:40:17.881Z,63.1183
2023-05-14T08:41:20.250Z,64.1015
2023-05-14T08:42:22.608Z,66.0176
2023-05-14T08:43:24.882Z,67.1032
2023-05-14T08:44:27.424Z,65.6975
2023-05-14T08:45:29.586Z,65.2303
2023-05-14T08:46:31.920Z,65.7831
2023-05-14T08:47:34.335Z,66.2918
2023-05-14T08:48:37.717Z,66.3307
2023-05-14T08:49:39.089Z,66.2348
2023-05-14T08:50:41.292Z,65.9994
2023-05-14T08:51:43.616Z,65.8534
2023-05-14T08:52:45.941Z,65.6481
2023-05-14T08:53:48.288Z,65.4627
2023-05-14T08:54:50.664Z,65.7357
2023-05-14T08:55:53.220Z,65.1813
2023-05-14T08:56:55.464Z,65.2386
2023-05-14T08:57:58.168Z,65.8101
2023-05-14T08:59:00.022Z,65.9796
2023-05-14T09:00:02.553Z,67.0207
2023-05-14T09:01:04.754Z,65.7003
2023-05-14T09:02:07.145Z,65.3001
2023-05-14T09:03:09.450Z,65.3455
2023-05-14T09:04:11.831Z,65.8124
2023-05-14T09:05:14.163Z,65.0361
2023-05-14T09:06:16.503Z,64.6536
2023-05-14T09:07:18.781Z,64.5117
2023-05-14T09:08:24.298Z,64.5268
2023-05-14T09:09:23.575Z,63.6478
2023-05-14T09:10:26.514Z,63.6580
2023-05-14T09:11:28.149Z,63.7123
2023-05-14T09:12:30.855Z,63.8303
2023-05-14T09:13:33.063Z,63.1322
2023-05-14T09:14:35.147Z,62.7766
2023-05-14T09:15:37.405Z,62.0936
2023-05-14T09:16:39.870Z,62.0594
2023-05-14T09:17:42.234Z,64.1177
2023-05-14T09:18:44.422Z,64.6832
2023-05-14T09:19:46.744Z,64.8136
2023-05-14T09:20:49.057Z,63.5182
2023-05-14T09:21:51.442Z,62.8072
2023-05-14T09:22:53.793Z,61.7888
2023-05-14T09:23:56.055Z,61.8183
2023-05-14T09:24:58.558Z,61.7359
2023-05-14T09:26:00.929Z,62.0936
2023-05-14T09:27:03.115Z,62.3093
2023-05-14T09:28:05.659Z,62.6189
2023-05-14T09:29:08.191Z,62.2908
2023-05-14T09:30:10.270Z,62.7141
2023-05-14T09:31:12.451Z,61.8950
2023-05-14T09:32:14.925Z,62.1440
2023-05-14T09:33:17.195Z,61.9208
2023-05-14T09:34:19.423Z,62.4148
2023-05-14T09:35:21.857Z,62.3238
2023-05-14T09:36:24.164Z,60.8946
2023-05-14T09:37:26.530Z,60.1446
2023-05-14T09:38:28.790Z,60.4313
2023-05-14T09:39:31.270Z,60.0007
2023-05-14T09:40:33.633Z,60.1627
2023-05-14T09:41:35.831Z,60.0756
2023-05-14T09:42:38.160Z,60.1329
2023-05-14T09:43:40.491Z,61.4555
2023-05-14T09:44:42.986Z,62.2890
2023-05-14T09:45:45.179Z,62.6942
2023-05-14T09:46:47.578Z,61.9481
2023-05-14T09:47:49.982Z,61.2095
2023-05-14T09:48:52.218Z,61.9108
2023-05-14T09:49:54.522Z,62.6873
2023-05-14T09:50:56.880Z,61.7800
2023-05-14T09:51:59.223Z,60.9114
2023-05-14T09:53:01.541Z,60.5746
2023-05-14T09:54:03.955Z,60.0409
2023-05-14T09:55:06.202Z,60.3050
2023-05-14T09:56:08.541Z,60.0906
2023-05-14T09:57:10.949Z,60.0078
2023-05-14T09:58:13.241Z,61.9731
2023-05-14T09:59:15.547Z,62.3150
2023-05-14T10:00:17.872Z,62.4717
2023-05-14T10:01:20.308Z,62.5924
2023-05-14T10:02:22.577Z,63.6320
2023-05-14T10:03:24.981Z,63.0661
2023-05-14T10:04:27.411Z,63.5382
2023-05-14T10:05:29.585Z,62.3023
2023-05-14T10:06:32.109Z,61.7948
2023-05-14T10:07:34.260Z,62.6767
2023-05-14T10:08:36.660Z,63.8498
2023-05-14T10:09:39.447Z,63.1148
2023-05-14T10:10:46.613Z,62.4638
2023-05-14T10:11:43.782Z,62.8006
2023-05-14T10:12:46.111Z,63.7408
2023-05-14T10:13:48.329Z,64.7465
2023-05-14T10:14:50.953Z,65.2427
2023-05-14T10:15:53.172Z,64.0836
2023-05-14T10:16:55.466Z,65.1368
2023-05-14T10:17:57.764Z,66.3729
2023-05-14T10:19:00.147Z,67.1752
2023-05-14T10:20:02.422Z,68.5052
2023-05-14T10:21:04.781Z,69.2865
2023-05-14T10:22:07.728Z,70.6083
2023-05-14T10:23:09.396Z,71.3111
2023-05-14T10:24:11.724Z,71.9052
2023-05-14T10:25:14.068Z,72.6843
2023-05-14T10:26:16.513Z,72.2796
2023-05-14T10:27:18.709Z,72.1132
2023-05-14T10:28:22.265Z,72.6147
2023-05-14T10:29:23.409Z,72.8797
2023-05-14T10:30:25.955Z,72.6216
2023-05-14T10:31:28.127Z,72.6083
2023-05-14T10:32:30.413Z,72.3863
2023-05-14T10:33:32.748Z,72.0893
2023-05-14T10:34:35.273Z,71.9204
2023-05-14T10:35:37.435Z,71.4319
2023-05-14T10:36:39.788Z,71.6779
2023-05-14T10:37:42.248Z,71.0283
2023-05-14T10:38:44.448Z,71.2644
2023-05-14T10:39:46.841Z,71.0997
2023-05-14T10:40:51.602Z,70.9259
2023-05-14T10:41:51.482Z,71.8344
2023-05-14T10:42:53.884Z,72.5670
2023-05-14T10:43:56.134Z,71.8353
2023-05-14T10:44:58.722Z,72.3661
2023-05-14T10:46:01.021Z,71.9681
2023-05-14T10:47:03.678Z,71.4247
2023-05-14T10:48:10.286Z,71.6478
2023-05-14T10:49:08.022Z,71.0096
2023-05-14T10:50:11.145Z,70.6139
2023-05-14T10:51:12.832Z,70.3487
2023-05-14T10:52:15.158Z,69.7367
2023-05-14T10:53:17.688Z,68.8887
2023-05-14T10:54:19.676Z,68.9707
2023-05-14T10:55:21.999Z,68.5936
2023-05-14T10:56:24.514Z,67.7406
2023-05-14T10:57:26.739Z,68.7796
2023-05-14T10:58:29.405Z,68.7623
2023-05-14T10:59:31.166Z,67.8439
2023-05-14T11:00:33.517Z,68.3211
2023-05-14T11:01:36.006Z,68.1656
2023-05-14T11:02:38.315Z,67.5089
2023-05-14T11:03:40.848Z,66.6170
2023-05-14T11:04:42.889Z,65.6325
2023-05-14T11:05:45.259Z,65.0539
2023-05-14T11:06:47.646Z,65.4240
2023-05-14T11:07:49.860Z,65.7843
2023-05-14T11:08:52.226Z,65.7543
2023-05-14T11:09:54.549Z,66.1097
2023-05-14T11:10:56.877Z,66.0486
2023-05-14T11:11:59.325Z,64.5852
2023-05-14T11:13:01.558Z,64.1015
2023-05-14T11:14:03.899Z,63.7780
2023-05-14T11:15:06.418Z,63.3031
2023-05-14T11:16:21.894Z,63.4794
2023-05-14T11:17:11.303Z,62.2801
2023-05-14T11:18:13.316Z,61.4562
2023-05-14T11:19:15.861Z,61.1165
2023-05-14T11:20:18.031Z,62.0244
2023-05-14T11:21:20.395Z,61.4627
2023-05-14T11:22:22.823Z,62.1263
2023-05-14T11:23:24.917Z,61.7961
2023-05-14T11:24:27.268Z,60.5504
2023-05-14T11:25:29.605Z,60.3620
2023-05-14T11:26:32.063Z,60.1135
2023-05-14T11:27:34.315Z,61.0861
2023-05-14T11:28:36.720Z,59.8567
2023-05-14T11:29:38.962Z,59.1756
2023-05-14T11:30:41.299Z,58.5771
2023-05-14T11:31:43.662Z,59.5407
2023-05-14T11:32:46.259Z,58.9968
2023-05-14T11:33:48.328Z,58.1130
2023-05-14T11:34:50.658Z,58.0181
2023-05-14T11:35:53.091Z,58.0327
2023-05-14T11:36:55.343Z,58.1947
2023-05-14T11:37:57.669Z,58.0707
2023-05-14T11:39:00.050Z,57.7296
2023-05-14T11:40:02.417Z,56.5753
2023-05-14T11:41:04.685Z,55.7373
2023-05-14T11:42:07.022Z,54.9775
2023-05-14T11:43:09.371Z,54.9515
2023-05-14T11:44:11.764Z,55.4938
2023-05-14T11:45:14.074Z,53.5737
2023-05-14T11:46:16.421Z,53.4350
2023-05-14T11:47:18.754Z,54.5113
2023-05-14T11:48:21.415Z,54.1756
2023-05-14T11:49:23.481Z,55.8325
2023-05-14T11:50:25.911Z,55.8962
2023-05-14T11:51:28.168Z,56.1474
2023-05-14T11:52:30.464Z,56.5128
2023-05-14T11:53:32.822Z,56.5313
2023-05-14T11:54:35.159Z,56.4337
2023-05-14T11:55:37.601Z,56.9301
2023-05-14T11:56:39.838Z,57.9694
2023-05-14T11:57:42.297Z,59.1694
2023-05-14T11:58:44.480Z,60.1409
2023-05-14T11:59:46.827Z,60.7483
2023-05-14T12:00:49.198Z,61.2448
2023-05-14T12:01:51.504Z,61.3669
2023-05-14T12:02:53.941Z,61.5311
2023-05-14T12:03:56.241Z,61.6199
2023-05-14T12:04:58.533Z,61.8554
2023-05-14T12:06:00.915Z,61.7634
2023-05-14T12:07:03.229Z,61.9926
2023-05-14T12:08:05.624Z,61.8834
2023-05-14T12:09:07.916Z,61.7972
2023-05-14T12:10:10.239Z,61.6650
2023-05-14T12:11:12.601Z,61.3905
2023-05-14T12:12:14.969Z,61.8562
2023-05-14T12:13:17.349Z,62.2145
2023-05-14T12:14:19.698Z,62.7974
2023-05-14T12:15:22.024Z,62.8431
2023-05-14T12:16:25.010Z,63.5600
2023-05-14T12:17:27.208Z,64.0320
2023-05-14T12:18:29.161Z,64.2105
2023-05-14T12:19:31.407Z,63.9395
2023-05-14T12:20:33.734Z,63.5523
2023-05-14T12:21:36.232Z,63.7076
2023-05-14T12:22:41.575Z,64.8992
2023-05-14T12:23:42.823Z,66.2403
2023-05-14T12:24:45.600Z,66.3722
2023-05-14T12:25:46.319Z,66.4293
2023-05-14T12:26:48.308Z,66.3681
2023-05-14T12:27:50.762Z,66.4164
2023-05-14T12:28:52.634Z,66.2441
2023-05-14T12:29:54.956Z,66.7376
2023-05-14T12:31:19.850Z,68.1721
2023-05-14T12:31:59.791Z,69.7189
2023-05-14T12:33:02.300Z,70.2849
2023-05-14T12:34:04.743Z,71.2383
2023-05-14T12:35:07.006Z,71.4742